Seale, Alabama
Current Conditions -  °F | °C
As of 12:58 PM on Friday 28 Nov 2014 (Local Time) from KLSF Reporting Station
Clear Clear  
Wind Chill: 50°   Ceiling: Unl
Heat Index: 50°   Visibility: 10mi
Dew Point: 23°   Wind: 0mph
Humidity: 34%   Direction: NA
Pressure: 30.34"   Gusts: NA
Location:  32.3°N, 85.17°W
Report Text: KLSF 281858Z AUTO 00000KT 10SM CLR 10/M05 A3034 RMK AO2 SLP278 T01011052 $
Loading
Personal Weather Stations






























Interactive Weather Map New forecast layout! Learn more

10-Day Weather Forecast

Advertisements
Track Severe Weather on mobile